YSNW/NOA METAR and TAF weather

Enter ICAO airport designator
Station Type Date Time Source
YSNW METAR 2020/07/10 18:00 UTC NOAA

YSNW 101800Z AUTO 31006KT 9999 // BKN125 10/06 Q1018


Station Type Date Time Source
YSNW Decoded METAR 2020/07/10 18:00 UTC NOAA

Nowra Ran Air Station, Australia (YSNW) 34-57S 150-32E 110M
Jul 10, 2020 - 02:00 PM EDT / 2020.07.10 1800 UTC
Wind: from the NW (310 degrees) at 7 MPH (6 KT):0
Visibility: greater than 7 mile(s):0
Sky conditions: mostly cloudy
Temperature: 50 F (10 C)
Dew Point: 42 F (6 C)
Relative Humidity: 76%
Pressure (altimeter): 30.06 in. Hg (1018 hPa)
ob: YSNW 101800Z AUTO 31006KT 9999 // BKN125 10/06 Q1018
cycle: 18

Station Type Date Time Source
YSNW TAF UTC NOAA

Error!

Example: see airport list